createdAt,value
2022-08-23T00:01:42.552Z,57.21
2022-08-23T00:04:13.187Z,57.16
2022-08-23T00:06:41.554Z,57.50
2022-08-23T00:09:09.838Z,57.54
2022-08-23T00:11:47.216Z,57.40
2022-08-23T00:14:27.185Z,57.34
2022-08-23T00:16:56.352Z,57.67
2022-08-23T00:19:24.061Z,57.62
2022-08-23T00:21:52.842Z,57.68
2022-08-23T00:24:19.768Z,57.89
2022-08-23T00:26:58.471Z,57.71
2022-08-23T00:29:38.329Z,57.77
2022-08-23T00:32:07.690Z,58.53
2022-08-23T00:34:35.598Z,58.70
2022-08-23T00:37:02.664Z,58.98
2022-08-23T00:39:29.248Z,59.23
2022-08-23T00:42:44.927Z,59.06
2022-08-23T00:45:34.222Z,58.51
2022-08-23T00:48:02.119Z,58.14
2022-08-23T00:50:43.698Z,58.10
2022-08-23T00:53:16.316Z,58.15
2022-08-23T00:55:46.173Z,57.83
2022-08-23T00:58:18.494Z,57.70
2022-08-23T01:00:46.451Z,57.85
2022-08-23T01:03:13.942Z,57.65
2022-08-23T01:09:22.991Z,57.98
2022-08-23T01:12:10.912Z,57.70
2022-08-23T01:14:57.318Z,57.91
2022-08-23T01:17:41.049Z,57.08
2022-08-23T01:20:16.809Z,57.35
2022-08-23T01:22:57.546Z,57.20
2022-08-23T01:25:27.560Z,57.00
2022-08-23T01:27:54.145Z,57.13
2022-08-23T01:30:26.015Z,56.98
2022-08-23T01:32:56.860Z,56.95
2022-08-23T01:35:31.275Z,57.40
2022-08-23T01:37:57.869Z,57.08
2022-08-23T01:40:24.539Z,57.04
2022-08-23T01:42:51.058Z,57.38
2022-08-23T01:45:17.624Z,56.39
2022-08-23T01:47:44.119Z,56.46
2022-08-23T01:50:12.921Z,56.07
2022-08-23T01:52:57.304Z,55.84
2022-08-23T01:55:24.676Z,56.03
2022-08-23T01:57:55.616Z,55.85
2022-08-23T02:00:25.695Z,56.01
2022-08-23T02:02:52.414Z,55.54
2022-08-23T02:05:19.505Z,55.60
2022-08-23T02:07:47.035Z,55.47
2022-08-23T02:10:13.890Z,55.59
2022-08-23T02:12:40.639Z,55.49
2022-08-23T02:15:07.904Z,55.45
2022-08-23T02:17:34.967Z,55.57
2022-08-23T02:20:03.026Z,55.50
2022-08-23T02:22:29.500Z,55.72
2022-08-23T02:24:56.038Z,55.26
2022-08-23T02:27:23.085Z,55.17
2022-08-23T02:29:52.129Z,55.13
2022-08-23T02:32:20.023Z,55.83
2022-08-23T02:34:51.255Z,56.96
2022-08-23T02:37:31.911Z,56.19
2022-08-23T02:39:58.497Z,56.92
2022-08-23T02:42:25.042Z,56.98
2022-08-23T02:44:51.521Z,57.82
2022-08-23T02:47:18.161Z,57.53
2022-08-23T02:49:44.628Z,58.65
2022-08-23T02:52:11.236Z,57.82
2022-08-23T02:54:37.923Z,58.08
2022-08-23T02:57:05.221Z,57.76
2022-08-23T02:59:31.693Z,57.84
2022-08-23T03:01:58.279Z,57.83
2022-08-23T03:04:25.555Z,57.61
2022-08-23T03:06:52.722Z,57.49
2022-08-23T03:09:19.459Z,57.06
2022-08-23T03:11:47.622Z,57.50
2022-08-23T03:14:14.322Z,57.37
2022-08-23T03:16:41.657Z,57.21
2022-08-23T03:19:08.546Z,58.02
2022-08-23T03:21:35.182Z,57.84
2022-08-23T03:24:02.672Z,57.90
2022-08-23T03:26:33.373Z,58.46
2022-08-23T03:28:59.942Z,58.66
2022-08-23T03:31:26.741Z,58.29
2022-08-23T03:33:58.097Z,59.70
2022-08-23T03:36:27.934Z,59.75
2022-08-23T03:38:55.521Z,59.64
2022-08-23T03:41:22.136Z,60.15
2022-08-23T03:43:48.640Z,59.61
2022-08-23T03:46:22.990Z,59.42
2022-08-23T03:48:57.866Z,60.17
2022-08-23T03:51:25.297Z,60.09
2022-08-23T03:53:52.218Z,59.93
2022-08-23T03:56:33.363Z,59.77
2022-08-23T03:59:03.248Z,59.34
2022-08-23T04:01:29.772Z,59.65
2022-08-23T04:03:59.882Z,59.21
2022-08-23T04:06:27.852Z,59.47
2022-08-23T04:08:55.308Z,59.52
2022-08-23T04:11:23.264Z,59.45
2022-08-23T04:13:50.206Z,58.95
2022-08-23T04:16:18.935Z,60.04
2022-08-23T04:18:45.905Z,60.65
2022-08-23T04:21:19.738Z,60.04
2022-08-23T04:23:46.200Z,60.14
2022-08-23T04:26:12.680Z,59.88
2022-08-23T04:28:40.079Z,59.68
2022-08-23T04:31:06.901Z,59.75
2022-08-23T04:33:34.366Z,59.85
2022-08-23T04:36:02.046Z,59.30
2022-08-23T04:38:29.157Z,59.59
2022-08-23T04:41:15.120Z,59.21
2022-08-23T04:43:43.980Z,58.93
2022-08-23T04:46:11.213Z,59.53
2022-08-23T04:48:37.682Z,59.27
2022-08-23T04:51:04.195Z,59.35
2022-08-23T04:53:32.839Z,59.66
2022-08-23T04:55:59.308Z,59.29
2022-08-23T04:58:25.798Z,59.68
2022-08-23T05:00:52.719Z,60.12
2022-08-23T05:03:19.922Z,60.42
2022-08-23T05:08:13.386Z,60.40
2022-08-23T05:10:40.169Z,60.08
2022-08-23T05:13:06.688Z,60.07
2022-08-23T05:15:33.165Z,60.31
2022-08-23T05:17:59.766Z,60.05
2022-08-23T05:20:26.454Z,60.19
2022-08-23T05:22:52.942Z,60.21
2022-08-23T05:25:19.530Z,60.07
2022-08-23T05:27:46.435Z,60.19
2022-08-23T05:30:15.442Z,60.17
2022-08-23T05:32:42.350Z,59.83
2022-08-23T05:35:09.380Z,60.02
2022-08-23T05:37:35.859Z,60.43
2022-08-23T05:40:02.796Z,59.83
2022-08-23T05:42:29.388Z,59.45
2022-08-23T05:44:56.483Z,59.51
2022-08-23T05:47:23.273Z,59.97
2022-08-23T05:49:51.553Z,59.46
2022-08-23T05:52:18.067Z,59.12
2022-08-23T05:54:44.560Z,59.09
2022-08-23T05:57:11.448Z,58.73
2022-08-23T05:59:38.047Z,58.67
2022-08-23T06:02:04.722Z,58.34
2022-08-23T06:04:31.268Z,58.32
2022-08-23T06:06:58.899Z,57.53
2022-08-23T06:09:26.359Z,58.29
2022-08-23T06:11:53.089Z,56.61
2022-08-23T06:14:19.890Z,56.05
2022-08-23T06:16:48.252Z,56.89
2022-08-23T06:19:15.596Z,56.60
2022-08-23T06:21:43.215Z,57.03
2022-08-23T06:24:10.225Z,57.33
2022-08-23T06:26:40.239Z,56.71
2022-08-23T06:29:11.546Z,57.25
2022-08-23T06:31:46.986Z,56.59
2022-08-23T06:34:22.204Z,57.01
2022-08-23T06:36:55.211Z,56.84
2022-08-23T06:39:24.969Z,56.92
2022-08-23T06:41:51.890Z,56.11
2022-08-23T06:44:20.105Z,55.87
2022-08-23T06:46:48.711Z,55.98
2022-08-23T06:49:15.597Z,55.88
2022-08-23T06:51:49.375Z,55.51
2022-08-23T06:54:19.213Z,54.95
2022-08-23T06:56:46.611Z,55.23
2022-08-23T06:59:13.426Z,55.18
2022-08-23T07:01:45.658Z,55.50
2022-08-23T07:04:19.783Z,55.18
2022-08-23T07:06:46.557Z,55.22
2022-08-23T07:09:13.992Z,55.20
2022-08-23T07:11:41.183Z,54.96
2022-08-23T07:14:14.229Z,55.89
2022-08-23T07:16:52.591Z,55.88
2022-08-23T07:19:21.893Z,54.72
2022-08-23T07:21:56.644Z,55.13
2022-08-23T07:24:23.576Z,54.33
2022-08-23T07:26:52.038Z,54.50
2022-08-23T07:29:21.068Z,54.54
2022-08-23T07:31:54.590Z,55.12
2022-08-23T07:34:22.814Z,55.77
2022-08-23T07:36:50.568Z,55.43
2022-08-23T07:39:18.232Z,54.24
2022-08-23T07:41:45.077Z,54.20
2022-08-23T07:44:12.715Z,54.02
2022-08-23T07:46:45.023Z,54.38
2022-08-23T07:49:12.745Z,53.90
2022-08-23T07:51:41.573Z,54.50
2022-08-23T07:54:10.039Z,54.27
2022-08-23T07:56:37.208Z,54.16
2022-08-23T07:59:05.537Z,54.15
2022-08-23T08:01:32.584Z,54.45
2022-08-23T08:04:02.125Z,53.87
2022-08-23T08:06:38.462Z,53.89
2022-08-23T08:09:06.149Z,53.97
2022-08-23T08:11:35.289Z,53.87
2022-08-23T08:14:05.238Z,54.12
2022-08-23T08:16:35.295Z,54.29
2022-08-23T08:19:04.143Z,54.18
2022-08-23T08:21:30.727Z,54.66
2022-08-23T08:23:58.378Z,54.13
2022-08-23T08:26:25.791Z,53.87
2022-08-23T08:28:52.475Z,53.55
2022-08-23T08:31:19.172Z,53.45
2022-08-23T08:33:45.693Z,52.92
2022-08-23T08:36:48.991Z,52.56
2022-08-23T08:39:19.818Z,52.23
2022-08-23T08:42:05.289Z,52.06
2022-08-23T08:44:41.458Z,51.63
2022-08-23T08:47:17.338Z,50.87
2022-08-23T08:49:56.173Z,49.92
2022-08-23T08:52:26.846Z,49.39
2022-08-23T08:55:12.350Z,48.89
2022-08-23T08:57:43.541Z,49.08
2022-08-23T09:00:15.319Z,47.62
2022-08-23T09:02:42.769Z,47.33
2022-08-23T09:05:27.263Z,46.87
2022-08-23T09:07:56.450Z,47.41
2022-08-23T09:10:34.802Z,47.49
2022-08-23T09:13:42.978Z,47.36
2022-08-23T09:16:41.185Z,47.91
2022-08-23T09:19:08.076Z,48.10
2022-08-23T09:21:47.957Z,47.61
2022-08-23T09:24:15.293Z,47.16
2022-08-23T09:26:42.088Z,46.98
2022-08-23T09:29:22.924Z,46.57
2022-08-23T09:31:52.996Z,45.80
2022-08-23T09:34:35.176Z,45.08
2022-08-23T09:37:11.553Z,45.77
2022-08-23T09:39:42.065Z,45.73
2022-08-23T09:42:25.498Z,45.92
2022-08-23T09:44:52.059Z,45.21
2022-08-23T09:47:18.651Z,45.19
2022-08-23T09:49:48.385Z,46.23
2022-08-23T09:52:21.957Z,44.86
2022-08-23T09:55:04.769Z,46.39
2022-08-23T09:57:34.456Z,46.46
2022-08-23T10:00:21.241Z,46.21
2022-08-23T10:02:47.865Z,46.04
2022-08-23T10:05:39.150Z,46.68
2022-08-23T10:08:10.253Z,46.44
2022-08-23T10:10:50.131Z,46.28
2022-08-23T10:13:18.431Z,46.31
2022-08-23T10:16:27.648Z,46.22
2022-08-23T10:18:59.744Z,45.78
2022-08-23T10:21:41.179Z,46.19
2022-08-23T10:24:29.359Z,46.40
2022-08-23T10:27:32.654Z,45.82
2022-08-23T10:30:12.637Z,45.79
2022-08-23T10:33:00.384Z,45.68
2022-08-23T10:35:30.661Z,45.46
2022-08-23T10:38:09.883Z,45.27
2022-08-23T10:40:46.077Z,45.88
2022-08-23T10:43:26.179Z,45.09
2022-08-23T10:45:57.112Z,45.18
2022-08-23T10:48:29.224Z,45.19
2022-08-23T10:51:03.779Z,43.25
2022-08-23T10:53:46.434Z,44.46
2022-08-23T10:56:20.939Z,43.73
2022-08-23T10:58:56.071Z,43.72
2022-08-23T11:01:35.196Z,43.71
2022-08-23T11:04:14.564Z,43.97
2022-08-23T11:06:45.752Z,43.40
2022-08-23T11:09:15.052Z,43.13
2022-08-23T11:12:07.323Z,43.82
2022-08-23T11:14:57.996Z,42.60
2022-08-23T11:17:33.686Z,42.44
2022-08-23T11:20:04.214Z,43.08
2022-08-23T11:22:33.601Z,42.43
2022-08-23T11:25:04.829Z,42.03
2022-08-23T11:27:35.057Z,41.78
2022-08-23T11:30:32.545Z,41.19
2022-08-23T11:33:02.829Z,40.68
2022-08-23T11:35:43.022Z,40.78
2022-08-23T11:38:11.533Z,40.02
2022-08-23T11:40:55.760Z,40.56
2022-08-23T11:43:25.305Z,41.08
2022-08-23T11:45:51.915Z,38.40
2022-08-23T11:48:36.918Z,37.71
2022-08-23T11:51:18.247Z,38.24
2022-08-23T11:53:54.936Z,38.89
2022-08-23T11:56:58.675Z,37.80
2022-08-23T11:59:41.551Z,37.00
2022-08-23T12:02:47.296Z,37.29
2022-08-23T12:05:22.766Z,40.15
2022-08-23T12:08:13.122Z,40.19
2022-08-23T12:10:42.597Z,39.47
2022-08-23T12:13:18.079Z,40.22
2022-08-23T12:16:17.048Z,40.27
2022-08-23T12:18:47.943Z,42.27
2022-08-23T12:21:23.702Z,42.81
2022-08-23T12:23:56.526Z,42.00
2022-08-23T12:26:42.708Z,41.89
2022-08-23T12:29:22.939Z,42.12
2022-08-23T12:32:02.995Z,42.70
2022-08-23T12:34:44.534Z,41.39
2022-08-23T12:37:12.629Z,42.03
2022-08-23T12:39:48.818Z,42.72
2022-08-23T12:42:19.950Z,42.46
2022-08-23T12:44:57.904Z,42.61
2022-08-23T12:47:24.464Z,42.05
2022-08-23T12:50:18.675Z,42.06
2022-08-23T12:53:00.924Z,41.35
2022-08-23T12:55:34.245Z,40.66
2022-08-23T12:58:01.393Z,41.54
2022-08-23T13:00:52.327Z,40.16
2022-08-23T13:03:28.555Z,40.70
2022-08-23T13:05:58.152Z,41.28
2022-08-23T13:08:38.801Z,41.17
2022-08-23T13:11:08.628Z,41.69
2022-08-23T13:13:38.647Z,41.88
2022-08-23T13:16:27.076Z,42.11
2022-08-23T13:18:56.315Z,42.44
2022-08-23T13:21:23.101Z,41.92
2022-08-23T13:23:52.520Z,41.35
2022-08-23T13:26:24.837Z,40.65
2022-08-23T13:29:23.898Z,41.05
2022-08-23T13:31:59.310Z,40.28
2022-08-23T13:34:34.695Z,39.82
2022-08-23T13:37:24.212Z,39.28
2022-08-23T13:39:55.839Z,40.24
2022-08-23T13:42:36.753Z,39.75
2022-08-23T13:45:16.109Z,40.19
2022-08-23T13:47:48.692Z,40.14
2022-08-23T13:50:25.240Z,40.49
2022-08-23T13:53:13.417Z,40.92
2022-08-23T13:55:46.009Z,40.25
2022-08-23T13:58:24.242Z,40.38
2022-08-23T14:00:55.390Z,40.21
2022-08-23T14:03:23.363Z,40.01
2022-08-23T14:05:49.884Z,39.14
2022-08-23T14:08:16.433Z,40.77
2022-08-23T14:10:43.435Z,40.28
2022-08-23T14:13:11.232Z,39.72
2022-08-23T14:15:58.461Z,39.83
2022-08-23T14:18:25.658Z,39.62
2022-08-23T14:20:52.287Z,39.38
2022-08-23T14:23:19.071Z,39.03
2022-08-23T14:25:47.245Z,38.21
2022-08-23T14:28:13.844Z,39.82
2022-08-23T14:30:40.382Z,40.25
2022-08-23T14:33:07.132Z,39.62
2022-08-23T14:35:33.728Z,39.63
2022-08-23T14:38:04.506Z,40.32
2022-08-23T14:40:31.962Z,39.83
2022-08-23T14:42:58.827Z,40.34
2022-08-23T14:45:26.009Z,40.05
2022-08-23T14:47:52.563Z,40.54
2022-08-23T14:50:19.185Z,40.39
2022-08-23T14:52:46.764Z,40.02
2022-08-23T14:55:15.318Z,40.75
2022-08-23T14:57:42.158Z,41.14
2022-08-23T15:00:13.824Z,41.43
2022-08-23T15:02:44.359Z,41.13
2022-08-23T15:05:12.034Z,41.08
2022-08-23T15:07:38.768Z,41.09
2022-08-23T15:10:06.727Z,42.06
2022-08-23T15:15:22.139Z,43.25
2022-08-23T15:17:57.619Z,43.19
2022-08-23T15:20:29.171Z,42.53
2022-08-23T15:22:56.223Z,42.73
2022-08-23T15:25:29.053Z,42.67
2022-08-23T15:27:56.566Z,41.78
2022-08-23T15:30:24.054Z,42.33
2022-08-23T15:32:52.798Z,42.46
2022-08-23T15:35:23.677Z,42.43
2022-08-23T15:37:50.271Z,41.86
2022-08-23T15:40:16.839Z,41.88
2022-08-23T15:42:43.722Z,41.67
2022-08-23T15:45:10.768Z,41.68
2022-08-23T15:47:55.100Z,41.36
2022-08-23T15:50:24.621Z,41.93
2022-08-23T15:52:51.693Z,42.13
2022-08-23T15:55:18.367Z,42.86
2022-08-23T15:57:52.182Z,42.85
2022-08-23T16:00:21.891Z,43.06
2022-08-23T16:03:18.648Z,42.99
2022-08-23T16:05:38.035Z,42.73
2022-08-23T16:08:06.893Z,43.67
2022-08-23T16:10:33.982Z,43.17
2022-08-23T16:13:01.304Z,42.81
2022-08-23T16:15:27.913Z,43.04
2022-08-23T16:17:54.519Z,43.86
2022-08-23T16:20:21.057Z,43.84
2022-08-23T16:22:47.755Z,43.38
2022-08-23T16:25:14.494Z,43.47
2022-08-23T16:27:41.007Z,42.77
2022-08-23T16:30:08.270Z,43.04
2022-08-23T16:32:39.192Z,42.87
2022-08-23T16:35:06.466Z,43.25
2022-08-23T16:37:32.949Z,43.57
2022-08-23T16:39:59.918Z,43.22
2022-08-23T16:42:26.434Z,43.59
2022-08-23T16:44:52.899Z,43.77
2022-08-23T16:47:19.580Z,43.44
2022-08-23T16:49:46.657Z,43.58
2022-08-23T16:52:13.253Z,43.55
2022-08-23T16:54:40.017Z,43.87
2022-08-23T16:57:06.855Z,43.23
2022-08-23T16:59:40.227Z,43.91
2022-08-23T17:02:10.603Z,43.57
2022-08-23T17:04:37.780Z,43.97
2022-08-23T17:07:04.445Z,43.51
2022-08-23T17:09:31.007Z,44.09
2022-08-23T17:12:01.054Z,43.50
2022-08-23T17:14:28.261Z,43.50
2022-08-23T17:16:55.245Z,43.42
2022-08-23T17:19:22.051Z,43.97
2022-08-23T17:21:48.944Z,43.22
2022-08-23T17:24:15.462Z,44.09
2022-08-23T17:26:42.157Z,44.67
2022-08-23T17:29:09.511Z,44.69
2022-08-23T17:31:37.709Z,45.00
2022-08-23T17:34:06.722Z,45.50
2022-08-23T17:36:50.031Z,45.79
2022-08-23T17:39:19.466Z,45.32
2022-08-23T17:41:46.022Z,45.59
2022-08-23T17:44:12.873Z,45.08
2022-08-23T17:46:41.799Z,45.40
2022-08-23T17:49:08.661Z,45.94
2022-08-23T17:51:36.793Z,45.75
2022-08-23T17:54:04.495Z,46.01
2022-08-23T17:56:31.000Z,45.59
2022-08-23T17:58:57.559Z,45.79
2022-08-23T18:01:24.248Z,45.64
2022-08-23T18:03:50.939Z,45.57
2022-08-23T18:06:17.859Z,45.37
2022-08-23T18:08:44.989Z,45.72
2022-08-23T18:11:11.930Z,45.59
2022-08-23T18:13:38.617Z,45.58
2022-08-23T18:16:06.327Z,45.33
2022-08-23T18:18:33.352Z,45.75
2022-08-23T18:21:05.356Z,46.47
2022-08-23T18:23:31.965Z,46.20
2022-08-23T18:25:58.498Z,46.54
2022-08-23T18:28:25.002Z,47.16
2022-08-23T18:30:57.500Z,46.79
2022-08-23T18:33:31.700Z,46.87
2022-08-23T18:35:58.884Z,47.43
2022-08-23T18:38:25.414Z,47.58
2022-08-23T18:40:52.009Z,48.00
2022-08-23T18:43:22.841Z,48.79
2022-08-23T18:45:51.224Z,48.68
2022-08-23T18:48:18.745Z,49.04
2022-08-23T18:50:46.045Z,49.30
2022-08-23T18:53:13.228Z,49.12
2022-08-23T18:55:41.181Z,49.12
2022-08-23T18:58:10.824Z,49.14
2022-08-23T19:00:38.572Z,48.69
2022-08-23T19:03:06.606Z,48.97
2022-08-23T19:05:40.033Z,49.06
2022-08-23T19:08:10.491Z,49.21
2022-08-23T19:10:37.226Z,49.45
2022-08-23T19:13:04.666Z,49.11
2022-08-23T19:15:34.055Z,49.69
2022-08-23T19:18:01.665Z,49.66
2022-08-23T19:20:29.253Z,50.56
2022-08-23T19:22:56.919Z,49.82
2022-08-23T19:25:25.419Z,50.31
2022-08-23T19:27:52.143Z,50.77
2022-08-23T19:30:18.700Z,50.75
2022-08-23T19:32:45.226Z,50.76
2022-08-23T19:35:13.662Z,50.62
2022-08-23T19:37:40.244Z,51.38
2022-08-23T19:40:07.407Z,51.11
2022-08-23T19:42:36.916Z,50.88
2022-08-23T19:45:07.680Z,51.04
2022-08-23T19:47:34.768Z,51.17
2022-08-23T19:50:03.224Z,51.22
2022-08-23T19:52:29.768Z,51.22
2022-08-23T19:55:00.586Z,51.03
2022-08-23T19:57:33.035Z,51.38
2022-08-23T20:00:01.150Z,51.26
2022-08-23T20:02:28.385Z,51.28
2022-08-23T20:04:55.180Z,51.46
2022-08-23T20:07:21.709Z,51.44
2022-08-23T20:09:48.203Z,51.55
2022-08-23T20:12:18.867Z,51.90
2022-08-23T20:14:46.024Z,51.78
2022-08-23T20:17:12.632Z,51.97
2022-08-23T20:19:41.040Z,52.11
2022-08-23T20:22:25.974Z,51.87
2022-08-23T20:24:53.234Z,51.37
2022-08-23T20:27:29.324Z,51.67
2022-08-23T20:29:59.525Z,51.65
2022-08-23T20:32:26.590Z,52.32
2022-08-23T20:34:53.232Z,52.56
2022-08-23T20:37:19.756Z,52.53
2022-08-23T20:39:46.335Z,52.35
2022-08-23T20:42:12.886Z,52.40
2022-08-23T20:44:39.380Z,52.66
2022-08-23T20:47:05.909Z,52.82
2022-08-23T20:49:32.434Z,53.03
2022-08-23T20:51:59.011Z,53.10
2022-08-23T20:54:25.709Z,53.07
2022-08-23T20:56:52.490Z,53.09
2022-08-23T20:59:19.996Z,53.38
2022-08-23T21:01:46.990Z,53.78
2022-08-23T21:04:13.608Z,53.98
2022-08-23T21:06:45.376Z,53.92
2022-08-23T21:09:18.965Z,53.91
2022-08-23T21:11:47.855Z,53.94
2022-08-23T21:14:16.385Z,54.86
2022-08-23T21:16:44.141Z,54.70
2022-08-23T21:19:10.833Z,55.05
2022-08-23T21:21:38.825Z,55.01
2022-08-23T21:24:07.339Z,54.97
2022-08-23T21:26:34.556Z,55.01
2022-08-23T21:29:01.387Z,55.06
2022-08-23T21:31:27.994Z,55.23
2022-08-23T21:33:55.215Z,55.30
2022-08-23T21:36:23.289Z,55.37
2022-08-23T21:38:50.205Z,55.56
2022-08-23T21:41:35.882Z,55.32
2022-08-23T21:44:05.659Z,55.16
2022-08-23T21:46:32.723Z,55.72
2022-08-23T21:49:00.275Z,55.80
2022-08-23T21:51:26.785Z,55.97
2022-08-23T21:53:53.459Z,55.74
2022-08-23T21:56:20.632Z,56.20
2022-08-23T21:58:50.406Z,56.13
2022-08-23T22:01:18.574Z,56.44
2022-08-23T22:03:45.370Z,56.26
2022-08-23T22:06:14.165Z,56.54
2022-08-23T22:08:41.850Z,56.67
2022-08-23T22:11:08.521Z,56.83
2022-08-23T22:13:35.939Z,56.63
2022-08-23T22:16:02.793Z,57.03
2022-08-23T22:18:30.970Z,56.99
2022-08-23T22:20:58.204Z,57.15
2022-08-23T22:23:29.274Z,57.02
2022-08-23T22:26:01.006Z,57.05
2022-08-23T22:28:32.540Z,57.52
2022-08-23T22:31:00.944Z,57.66
2022-08-23T22:33:27.701Z,58.16
2022-08-23T22:35:54.565Z,58.07
2022-08-23T22:38:21.051Z,58.41
2022-08-23T22:40:52.230Z,58.40
2022-08-23T22:43:19.937Z,58.59
2022-08-23T22:45:55.664Z,58.78
2022-08-23T22:48:23.326Z,58.96
2022-08-23T22:50:50.048Z,58.92
2022-08-23T22:53:17.853Z,59.55
2022-08-23T22:55:50.809Z,59.33
2022-08-23T22:58:17.589Z,59.48
2022-08-23T23:00:44.526Z,59.90
2022-08-23T23:03:11.041Z,61.07
2022-08-23T23:05:37.592Z,60.76
2022-08-23T23:08:23.364Z,61.79
2022-08-23T23:10:50.011Z,61.06
2022-08-23T23:13:16.602Z,60.95
2022-08-23T23:15:43.703Z,61.19
2022-08-23T23:18:10.436Z,60.98
2022-08-23T23:20:37.889Z,60.76
2022-08-23T23:23:15.803Z,61.00
2022-08-23T23:25:43.425Z,60.63
2022-08-23T23:28:10.141Z,60.71
2022-08-23T23:30:36.838Z,60.67
2022-08-23T23:33:03.584Z,60.70
2022-08-23T23:35:30.122Z,60.85
2022-08-23T23:37:57.794Z,60.85
2022-08-23T23:40:25.972Z,60.72
2022-08-23T23:42:53.309Z,61.15
2022-08-23T23:45:20.758Z,60.82
2022-08-23T23:47:47.273Z,60.75
2022-08-23T23:50:14.338Z,61.20
2022-08-23T23:52:41.419Z,61.27
2022-08-23T23:55:10.912Z,61.14
2022-08-23T23:57:37.705Z,61.60
